Time;durP1;ratioP1;P1;durP2;ratioP2;P2;SDS_P1;SDS_P2;PMS_P1;PMS_P2;Temp;Humidity;BMP_temperature;BMP_pressure;BME280_temperature;BME280_humidity;BME280_pressure;Samples;Min_cycle;Max_cycle;Signal;HPM_P1;HPM_P2
2021/12/28 00:01:10;;;;;;;2.37;1.13;;;;;;;;;;5096541;28;20396;-71
2021/12/28 00:03:37;;;;;;;4.10;1.23;;;;;;;;;;5096555;28;20415;-71
2021/12/28 00:06:04;;;;;;;3.53;1.57;;;;;;;;;;5096496;28;20486;-71
2021/12/28 00:08:31;;;;;;;3.20;1.50;;;;;;;;;;5096195;28;20502;-70
2021/12/28 00:10:58;;;;;;;3.23;1.60;;;;;;;;;;5096312;28;20404;-71
2021/12/28 00:13:24;;;;;;;3.73;1.30;;;;;;;;;;5096329;28;20463;-70
2021/12/28 00:17:59;;;;;;;4.77;1.53;;;;;;;;;;5096327;28;20402;-71
2021/12/28 00:18:37;;;;;;;3.47;1.67;;;;;;;;;;5088547;28;20412;-71
2021/12/28 00:21:05;;;;;;;1.30;1.17;;;;;;;;;;5094865;28;20519;-70
2021/12/28 00:23:37;;;;;;;2.17;1.20;;;;;;;;;;5096123;28;20879;-71
2021/12/28 00:26:04;;;;;;;1.97;1.30;;;;;;;;;;5094910;28;20431;-71
2021/12/28 00:28:31;;;;;;;5.60;1.23;;;;;;;;;;5094726;28;20408;-71
2021/12/28 00:30:57;;;;;;;2.07;1.50;;;;;;;;;;5095900;28;20473;-74
2021/12/28 00:33:24;;;;;;;3.23;1.47;;;;;;;;;;5095929;28;20624;-74
2021/12/28 00:35:51;;;;;;;2.03;1.30;;;;;;;;;;5095858;28;20425;-75
2021/12/28 00:38:21;;;;;;;4.33;1.93;;;;;;;;;;5093870;28;20439;-74
2021/12/28 00:40:48;;;;;;;8.13;2.13;;;;;;;;;;5095691;28;20408;-75
2021/12/28 00:43:14;;;;;;;2.33;1.50;;;;;;;;;;5095773;28;20890;-75
2021/12/28 00:45:40;;;;;;;2.50;1.40;;;;;;;;;;5094586;28;20419;-74
2021/12/28 00:48:06;;;;;;;2.90;1.47;;;;;;;;;;5095664;28;20412;-70
2021/12/28 00:50:32;;;;;;;4.90;1.93;;;;;;;;;;5094403;28;20872;-72
2021/12/28 00:52:58;;;;;;;2.23;1.37;;;;;;;;;;5094279;28;20541;-71
2021/12/28 00:55:25;;;;;;;1.90;1.50;;;;;;;;;;5095572;28;20432;-71
2021/12/28 00:57:51;;;;;;;2.13;1.60;;;;;;;;;;5095162;28;20420;-71
2021/12/28 01:00:19;;;;;;;2.43;1.53;;;;;;;;;;5095497;28;20443;-70
2021/12/28 01:02:46;;;;;;;2.87;1.53;;;;;;;;;;5095211;28;20391;-72
2021/12/28 01:05:12;;;;;;;4.47;1.80;;;;;;;;;;5095352;28;20502;-71
2021/12/28 01:07:39;;;;;;;3.13;1.50;;;;;;;;;;5095076;28;20411;-71
2021/12/28 01:10:06;;;;;;;4.37;1.47;;;;;;;;;;5095229;28;20901;-71
2021/12/28 01:12:32;;;;;;;2.83;1.60;;;;;;;;;;5095065;28;20835;-71
2021/12/28 01:14:59;;;;;;;3.97;1.40;;;;;;;;;;5093907;28;20537;-74
2021/12/28 01:17:25;;;;;;;2.60;1.50;;;;;;;;;;5095089;28;20415;-73
2021/12/28 01:19:51;;;;;;;4.00;1.73;;;;;;;;;;5094979;28;20392;-73
2021/12/28 01:22:17;;;;;;;4.27;2.03;;;;;;;;;;5094904;28;20935;-71
2021/12/28 01:24:43;;;;;;;3.07;1.43;;;;;;;;;;5094914;28;20875;-71
2021/12/28 01:27:09;;;;;;;5.50;2.50;;;;;;;;;;5094897;28;20403;-72
2021/12/28 01:29:36;;;;;;;3.00;1.53;;;;;;;;;;5094794;28;20404;-75
2021/12/28 01:32:02;;;;;;;3.53;1.30;;;;;;;;;;5093433;28;20459;-73
2021/12/28 01:34:28;;;;;;;4.83;1.97;;;;;;;;;;5093541;28;20423;-73
2021/12/28 01:36:54;;;;;;;4.40;1.57;;;;;;;;;;5093355;28;20798;-71
2021/12/28 01:39:20;;;;;;;3.93;2.30;;;;;;;;;;5094514;28;20414;-70
2021/12/28 01:41:46;;;;;;;4.37;1.50;;;;;;;;;;5093135;28;20523;-73
2021/12/28 01:44:12;;;;;;;5.57;1.63;;;;;;;;;;5094523;28;20410;-70
2021/12/28 01:46:39;;;;;;;3.73;1.83;;;;;;;;;;5094556;28;20546;-72
2021/12/28 01:49:06;;;;;;;2.20;1.40;;;;;;;;;;5094429;28;20883;-70
2021/12/28 01:51:33;;;;;;;5.30;2.27;;;;;;;;;;5093160;28;20455;-69
2021/12/28 01:53:59;;;;;;;2.70;1.60;;;;;;;;;;5093169;28;20408;-72
2021/12/28 01:56:27;;;;;;;3.23;1.53;;;;;;;;;;5094344;28;20408;-69
2021/12/28 01:58:53;;;;;;;3.87;1.60;;;;;;;;;;5093989;28;20451;-69
2021/12/28 02:01:20;;;;;;;3.47;1.43;;;;;;;;;;5094103;28;20443;-71
2021/12/28 02:03:46;;;;;;;4.23;2.00;;;;;;;;;;5092889;28;20404;-71
2021/12/28 02:06:13;;;;;;;5.57;2.03;;;;;;;;;;5094082;28;20401;-70
2021/12/28 02:08:39;;;;;;;4.93;1.90;;;;;;;;;;5092712;28;20457;-70
2021/12/28 02:11:06;;;;;;;2.90;1.40;;;;;;;;;;5093955;28;20457;-70
2021/12/28 02:13:32;;;;;;;4.83;1.37;;;;;;;;;;5093938;28;20759;-70
2021/12/28 02:15:58;;;;;;;3.43;1.80;;;;;;;;;;5092719;28;20424;-70
2021/12/28 02:18:25;;;;;;;3.50;1.33;;;;;;;;;;5093935;28;20388;-70
2021/12/28 02:20:52;;;;;;;6.67;1.93;;;;;;;;;;5093649;28;20418;-70
2021/12/28 02:23:19;;;;;;;8.13;2.43;;;;;;;;;;5093871;28;20895;-70
2021/12/28 02:25:45;;;;;;;6.33;2.40;;;;;;;;;;5093817;28;20419;-71
2021/12/28 02:28:13;;;;;;;4.20;1.50;;;;;;;;;;5093752;28;20396;-70
2021/12/28 02:30:40;;;;;;;5.07;2.03;;;;;;;;;;5093772;28;20408;-70
2021/12/28 02:33:06;;;;;;;2.33;1.60;;;;;;;;;;5093682;28;20459;-70
2021/12/28 02:35:33;;;;;;;4.30;1.63;;;;;;;;;;5092399;28;20452;-70
2021/12/28 02:37:59;;;;;;;5.70;1.53;;;;;;;;;;5092305;28;20777;-71
2021/12/28 02:40:27;;;;;;;7.93;1.73;;;;;;;;;;5093662;28;20415;-71
2021/12/28 02:42:54;;;;;;;5.10;2.07;;;;;;;;;;5093472;28;20407;-74
2021/12/28 02:45:28;;;;;;;3.27;1.83;;;;;;;;;;5092201;28;20465;-74
2021/12/28 02:47:54;;;;;;;6.47;1.87;;;;;;;;;;5093429;28;20415;-74
2021/12/28 02:50:22;;;;;;;5.00;2.10;;;;;;;;;;5093464;28;20887;-74
2021/12/28 02:52:48;;;;;;;3.13;1.57;;;;;;;;;;5092045;28;20478;-73
2021/12/28 02:55:17;;;;;;;5.43;2.47;;;;;;;;;;5093451;28;20400;-74
2021/12/28 02:57:54;;;;;;;10.70;2.73;;;;;;;;;;5093232;28;20906;-72
2021/12/28 03:00:29;;;;;;;6.47;2.27;;;;;;;;;;5092161;28;20508;-74
2021/12/28 03:02:55;;;;;;;6.50;1.80;;;;;;;;;;5092895;28;20502;-75
2021/12/28 03:05:22;;;;;;;7.80;1.73;;;;;;;;;;5093304;28;20416;-74
2021/12/28 03:07:48;;;;;;;4.33;1.73;;;;;;;;;;5093108;28;20423;-74
2021/12/28 03:10:14;;;;;;;6.90;1.80;;;;;;;;;;5093279;28;20411;-73
2021/12/28 03:12:40;;;;;;;6.37;1.97;;;;;;;;;;5093040;28;20486;-75
2021/12/28 03:15:06;;;;;;;7.63;1.97;;;;;;;;;;5093096;28;20399;-74
2021/12/28 03:17:32;;;;;;;3.00;1.80;;;;;;;;;;5093020;28;20404;-72
2021/12/28 03:19:58;;;;;;;3.20;1.70;;;;;;;;;;5093196;28;20422;-74
2021/12/28 03:22:24;;;;;;;5.13;2.00;;;;;;;;;;5093042;28;20404;-74
2021/12/28 03:24:50;;;;;;;5.30;1.87;;;;;;;;;;5093063;28;20407;-75
2021/12/28 03:27:16;;;;;;;4.90;1.83;;;;;;;;;;5091880;28;20735;-74
2021/12/28 03:29:42;;;;;;;7.97;2.50;;;;;;;;;;5091888;28;20415;-74
2021/12/28 03:32:08;;;;;;;5.03;1.93;;;;;;;;;;5091684;28;20563;-74
2021/12/28 03:34:34;;;;;;;3.20;2.00;;;;;;;;;;5091682;28;20404;-72
2021/12/28 03:37:00;;;;;;;3.47;1.80;;;;;;;;;;5092881;28;20442;-75
2021/12/28 03:39:26;;;;;;;4.60;1.60;;;;;;;;;;5092680;28;20408;-74
2021/12/28 03:41:52;;;;;;;5.20;2.00;;;;;;;;;;5092968;28;20404;-74
2021/12/28 03:44:18;;;;;;;9.87;1.87;;;;;;;;;;5091639;28;20407;-74
2021/12/28 03:46:44;;;;;;;6.43;1.87;;;;;;;;;;5091645;28;20415;-74
2021/12/28 03:49:10;;;;;;;6.57;2.33;;;;;;;;;;5092841;28;20879;-74
2021/12/28 03:51:36;;;;;;;4.40;1.70;;;;;;;;;;5091520;28;21023;-75
2021/12/28 03:54:03;;;;;;;3.07;1.93;;;;;;;;;;5092847;28;20494;-74
2021/12/28 03:56:29;;;;;;;6.53;2.30;;;;;;;;;;5092827;28;20469;-74
2021/12/28 03:58:55;;;;;;;6.60;1.80;;;;;;;;;;5092718;28;20455;-74
2021/12/28 04:01:23;;;;;;;4.50;1.93;;;;;;;;;;5092956;28;20865;-74
2021/12/28 04:03:49;;;;;;;5.60;2.00;;;;;;;;;;5092904;28;20399;-70
2021/12/28 04:06:18;;;;;;;7.03;2.07;;;;;;;;;;5091403;28;20431;-71
2021/12/28 04:08:44;;;;;;;10.93;2.00;;;;;;;;;;5092571;28;20399;-70
2021/12/28 04:13:48;;;;;;;2.07;1.70;;;;;;;;;;5093186;28;20434;-72
2021/12/28 04:16:14;;;;;;;5.37;2.03;;;;;;;;;;5094993;28;20995;-70
2021/12/28 04:18:41;;;;;;;4.80;1.37;;;;;;;;;;5096053;28;20760;-71
2021/12/28 04:21:07;;;;;;;2.37;1.80;;;;;;;;;;5096155;28;20400;-72
2021/12/28 04:23:33;;;;;;;6.30;1.77;;;;;;;;;;5096119;28;20396;-73
2021/12/28 04:26:00;;;;;;;4.20;1.60;;;;;;;;;;5096083;28;20419;-73
2021/12/28 04:28:26;;;;;;;5.67;1.70;;;;;;;;;;5094697;28;20408;-70
2021/12/28 04:30:52;;;;;;;7.47;1.83;;;;;;;;;;5095966;28;20486;-70
2021/12/28 04:33:18;;;;;;;1.97;1.20;;;;;;;;;;5095954;28;20459;-71
2021/12/28 04:35:44;;;;;;;4.63;1.63;;;;;;;;;;5095922;28;20453;-70
2021/12/28 04:38:10;;;;;;;3.80;1.87;;;;;;;;;;5095710;28;20411;-71
2021/12/28 04:40:36;;;;;;;3.00;1.50;;;;;;;;;;5094454;28;20861;-71
2021/12/28 04:43:02;;;;;;;2.80;1.40;;;;;;;;;;5095785;28;20412;-70
2021/12/28 04:45:29;;;;;;;4.43;1.70;;;;;;;;;;5095707;28;20404;-70
2021/12/28 04:47:55;;;;;;;5.10;1.80;;;;;;;;;;5095667;28;20494;-70
2021/12/28 04:50:21;;;;;;;2.10;1.53;;;;;;;;;;5095785;28;20496;-70
2021/12/28 04:52:47;;;;;;;2.50;1.40;;;;;;;;;;5094296;28;21005;-71
2021/12/28 04:55:16;;;;;;;3.73;1.20;;;;;;;;;;5095548;28;20457;-70
2021/12/28 04:57:42;;;;;;;9.57;2.03;;;;;;;;;;5095206;28;20857;-70
2021/12/28 05:00:10;;;;;;;3.60;1.57;;;;;;;;;;5094083;28;20420;-70
2021/12/28 05:02:36;;;;;;;2.30;1.50;;;;;;;;;;5094163;28;20424;-70
2021/12/28 05:05:03;;;;;;;5.93;1.70;;;;;;;;;;5095404;28;20407;-70
2021/12/28 05:07:29;;;;;;;4.23;1.83;;;;;;;;;;5095089;28;20503;-70
2021/12/28 05:09:57;;;;;;;7.37;1.90;;;;;;;;;;5093973;28;20453;-70
2021/12/28 05:12:24;;;;;;;4.43;2.00;;;;;;;;;;5095146;28;20463;-70
2021/12/28 05:14:50;;;;;;;2.97;1.50;;;;;;;;;;5094020;28;20422;-70
2021/12/28 05:17:16;;;;;;;3.97;1.60;;;;;;;;;;5095084;28;20410;-74
2021/12/28 05:19:43;;;;;;;2.63;1.73;;;;;;;;;;5094928;28;20395;-74
2021/12/28 05:22:09;;;;;;;3.67;1.77;;;;;;;;;;5094981;28;20408;-74
2021/12/28 05:24:36;;;;;;;3.77;1.53;;;;;;;;;;5093623;28;20404;-73
2021/12/28 05:27:02;;;;;;;2.17;1.33;;;;;;;;;;5093623;28;20553;-73
2021/12/28 05:29:28;;;;;;;12.50;2.10;;;;;;;;;;5093660;28;20491;-72
2021/12/28 05:31:54;;;;;;;3.03;1.40;;;;;;;;;;5093374;28;20455;-72
2021/12/28 05:34:20;;;;;;;2.93;1.57;;;;;;;;;;5093636;28;20416;-71
2021/12/28 05:36:46;;;;;;;3.77;1.33;;;;;;;;;;5094551;28;20480;-72
2021/12/28 05:39:13;;;;;;;3.63;1.80;;;;;;;;;;5094434;28;20419;-70
2021/12/28 05:41:39;;;;;;;2.13;1.20;;;;;;;;;;5094600;28;20964;-71
2021/12/28 05:44:05;;;;;;;3.50;1.77;;;;;;;;;;5094533;28;20404;-70
2021/12/28 05:46:31;;;;;;;3.10;1.60;;;;;;;;;;5094636;28;20524;-71
2021/12/28 05:48:57;;;;;;;3.20;1.53;;;;;;;;;;5094430;28;20847;-71
2021/12/28 05:51:23;;;;;;;4.50;1.83;;;;;;;;;;5093095;28;20412;-71
2021/12/28 05:53:49;;;;;;;3.53;2.10;;;;;;;;;;5093249;28;20522;-71
2021/12/28 05:56:15;;;;;;;5.03;2.00;;;;;;;;;;5093084;28;20447;-71
2021/12/28 05:58:41;;;;;;;1.97;1.20;;;;;;;;;;5093914;28;20510;-71
2021/12/28 06:01:07;;;;;;;6.23;1.97;;;;;;;;;;5093138;28;20469;-71
2021/12/28 06:03:34;;;;;;;1.53;1.43;;;;;;;;;;5094208;28;20419;-71
2021/12/28 06:06:00;;;;;;;2.53;1.90;;;;;;;;;;5092782;28;20408;-72
2021/12/28 06:08:26;;;;;;;6.20;1.70;;;;;;;;;;5093997;28;20470;-72
2021/12/28 06:10:52;;;;;;;6.30;1.87;;;;;;;;;;5092832;28;20415;-73
2021/12/28 06:13:19;;;;;;;2.10;1.47;;;;;;;;;;5092696;28;20463;-72
2021/12/28 06:15:45;;;;;;;3.17;2.13;;;;;;;;;;5094017;28;20453;-72
2021/12/28 06:18:11;;;;;;;3.80;2.00;;;;;;;;;;5092701;28;20451;-73
2021/12/28 06:20:37;;;;;;;2.07;1.30;;;;;;;;;;5093902;28;20503;-73
2021/12/28 06:23:03;;;;;;;6.47;1.93;;;;;;;;;;5093864;28;20411;-74
2021/12/28 06:25:29;;;;;;;2.73;1.73;;;;;;;;;;5092604;28;20396;-72
2021/12/28 06:27:55;;;;;;;8.50;1.90;;;;;;;;;;5093752;28;20411;-74
2021/12/28 06:30:22;;;;;;;2.23;1.63;;;;;;;;;;5092586;28;20408;-71
2021/12/28 06:32:48;;;;;;;1.70;1.30;;;;;;;;;;5092418;28;20994;-71
2021/12/28 06:35:14;;;;;;;2.63;1.90;;;;;;;;;;5093725;28;20403;-71
2021/12/28 06:37:40;;;;;;;2.83;1.87;;;;;;;;;;5093021;28;20518;-71
2021/12/28 06:40:06;;;;;;;5.10;2.27;;;;;;;;;;5093413;28;20400;-72
2021/12/28 06:42:32;;;;;;;4.30;1.60;;;;;;;;;;5093509;28;20420;-71
2021/12/28 06:44:59;;;;;;;4.97;1.37;;;;;;;;;;5093510;28;20435;-71
2021/12/28 06:47:25;;;;;;;2.10;1.37;;;;;;;;;;5093435;28;20411;-70
2021/12/28 06:49:51;;;;;;;1.47;1.10;;;;;;;;;;5093433;28;20404;-71
2021/12/28 06:52:17;;;;;;;1.20;0.93;;;;;;;;;;5093314;28;20945;-70
2021/12/28 06:54:44;;;;;;;2.30;1.00;;;;;;;;;;5093442;28;20407;-74
2021/12/28 06:57:11;;;;;;;1.50;1.20;;;;;;;;;;5093417;28;20405;-73
2021/12/28 06:59:40;;;;;;;2.83;1.23;;;;;;;;;;5091825;28;20478;-74
2021/12/28 07:02:06;;;;;;;1.67;1.10;;;;;;;;;;5093439;28;20411;-74
2021/12/28 07:04:33;;;;;;;3.80;1.63;;;;;;;;;;5093240;28;20846;-74
2021/12/28 07:06:59;;;;;;;1.50;1.00;;;;;;;;;;5093109;28;20427;-74
2021/12/28 07:09:25;;;;;;;1.97;0.90;;;;;;;;;;5093255;28;20899;-74
2021/12/28 07:11:51;;;;;;;1.30;1.00;;;;;;;;;;5091838;28;20470;-73
2021/12/28 07:14:17;;;;;;;1.10;1.00;;;;;;;;;;5091859;28;20419;-74
2021/12/28 07:16:43;;;;;;;0.90;0.90;;;;;;;;;;5093143;28;20473;-74
2021/12/28 07:19:11;;;;;;;0.80;0.80;;;;;;;;;;5093125;28;20968;-74
2021/12/28 07:21:37;;;;;;;0.90;0.80;;;;;;;;;;5093171;28;20465;-74
2021/12/28 07:24:04;;;;;;;0.80;0.80;;;;;;;;;;5091792;28;20922;-71
2021/12/28 07:26:30;;;;;;;0.90;0.70;;;;;;;;;;5092814;28;20740;-74
2021/12/28 07:28:56;;;;;;;0.80;0.80;;;;;;;;;;5093056;28;20403;-72
2021/12/28 07:31:22;;;;;;;2.00;0.80;;;;;;;;;;5092929;28;20414;-71
2021/12/28 07:33:48;;;;;;;0.70;0.70;;;;;;;;;;5092934;28;20412;-73
2021/12/28 07:36:15;;;;;;;1.57;0.90;;;;;;;;;;5092869;28;20412;-73
2021/12/28 07:38:41;;;;;;;2.67;0.70;;;;;;;;;;5092863;28;20443;-73
2021/12/28 07:41:07;;;;;;;0.87;0.77;;;;;;;;;;5092728;28;20950;-73
2021/12/28 07:43:34;;;;;;;2.50;0.70;;;;;;;;;;5091555;28;20428;-73
2021/12/28 07:46:00;;;;;;;1.37;0.97;;;;;;;;;;5092757;28;20411;-73
2021/12/28 07:48:26;;;;;;;1.00;0.83;;;;;;;;;;5093198;28;20416;-73
2021/12/28 07:50:52;;;;;;;1.83;0.90;;;;;;;;;;5095563;28;21001;-73
2021/12/28 07:53:18;;;;;;;1.97;0.73;;;;;;;;;;5096604;28;20471;-73
2021/12/28 07:55:44;;;;;;;1.37;0.70;;;;;;;;;;5096839;28;20473;-75
2021/12/28 07:58:10;;;;;;;0.77;0.70;;;;;;;;;;5095129;28;20455;-75
2021/12/28 08:00:36;;;;;;;0.80;0.70;;;;;;;;;;5095279;28;20407;-75
2021/12/28 08:03:04;;;;;;;1.87;0.80;;;;;;;;;;5096487;28;20902;-75
2021/12/28 08:05:30;;;;;;;0.70;0.60;;;;;;;;;;5095420;28;20810;-72
2021/12/28 08:07:56;;;;;;;0.73;0.67;;;;;;;;;;5096398;28;20454;-74
2021/12/28 08:10:22;;;;;;;1.23;0.70;;;;;;;;;;5096486;28;20494;-75
2021/12/28 08:12:49;;;;;;;0.80;0.70;;;;;;;;;;5096270;28;20535;-74
2021/12/28 08:15:15;;;;;;;0.60;0.60;;;;;;;;;;5096490;28;20404;-75
2021/12/28 08:17:41;;;;;;;0.73;0.73;;;;;;;;;;5095014;28;20537;-74
2021/12/28 08:20:08;;;;;;;1.93;0.83;;;;;;;;;;5094982;28;20420;-72
2021/12/28 08:22:36;;;;;;;1.00;0.60;;;;;;;;;;5096268;28;20408;-74
2021/12/28 08:25:02;;;;;;;1.10;0.80;;;;;;;;;;5096050;28;20419;-74
2021/12/28 08:27:28;;;;;;;0.80;0.80;;;;;;;;;;5094789;28;20824;-74
2021/12/28 08:29:54;;;;;;;0.70;0.70;;;;;;;;;;5094799;28;20412;-75
2021/12/28 08:32:20;;;;;;;1.43;0.70;;;;;;;;;;5095996;28;20459;-74
2021/12/28 08:34:46;;;;;;;0.60;0.60;;;;;;;;;;5094689;28;20477;-73
2021/12/28 08:37:12;;;;;;;0.70;0.50;;;;;;;;;;5095812;28;20454;-72
2021/12/28 08:39:39;;;;;;;1.00;0.60;;;;;;;;;;5094580;28;20415;-73
2021/12/28 08:42:05;;;;;;;0.67;0.53;;;;;;;;;;5094560;28;20574;-73
2021/12/28 08:44:31;;;;;;;0.60;0.60;;;;;;;;;;5095838;28;20407;-74
2021/12/28 08:46:57;;;;;;;0.60;0.50;;;;;;;;;;5095763;28;20756;-75
2021/12/28 08:49:25;;;;;;;1.13;0.60;;;;;;;;;;5095641;28;20877;-74
2021/12/28 08:51:51;;;;;;;1.60;0.70;;;;;;;;;;5095626;28;20524;-74
2021/12/28 08:54:17;;;;;;;0.60;0.50;;;;;;;;;;5095622;28;20903;-73
2021/12/28 08:56:44;;;;;;;0.60;0.57;;;;;;;;;;5095595;28;20408;-73
2021/12/28 08:59:11;;;;;;;0.80;0.67;;;;;;;;;;5093815;28;20826;-74
2021/12/28 09:01:37;;;;;;;0.70;0.70;;;;;;;;;;5095109;28;20400;-74
2021/12/28 09:04:03;;;;;;;0.50;0.50;;;;;;;;;;5095488;28;20408;-73
2021/12/28 09:06:29;;;;;;;0.60;0.60;;;;;;;;;;5095252;28;20411;-74
2021/12/28 09:08:55;;;;;;;0.83;0.70;;;;;;;;;;5094069;28;20906;-74
2021/12/28 09:11:21;;;;;;;0.73;0.73;;;;;;;;;;5095333;28;20392;-74
2021/12/28 09:13:47;;;;;;;0.70;0.60;;;;;;;;;;5095232;28;20510;-74
2021/12/28 09:16:13;;;;;;;0.80;0.70;;;;;;;;;;5093889;28;20418;-73
2021/12/28 09:18:40;;;;;;;0.70;0.60;;;;;;;;;;5093730;28;20416;-73
2021/12/28 09:21:06;;;;;;;0.60;0.60;;;;;;;;;;5095040;28;20423;-74
2021/12/28 09:23:32;;;;;;;0.70;0.70;;;;;;;;;;5095170;28;20452;-74
2021/12/28 09:25:58;;;;;;;0.90;0.80;;;;;;;;;;5094903;28;20957;-74
2021/12/28 09:28:24;;;;;;;0.60;0.60;;;;;;;;;;5094852;28;20408;-74
2021/12/28 09:30:50;;;;;;;0.60;0.60;;;;;;;;;;5094890;28;20491;-73
2021/12/28 09:33:16;;;;;;;1.93;0.60;;;;;;;;;;5093542;28;20915;-74
2021/12/28 09:35:42;;;;;;;0.60;0.50;;;;;;;;;;5093449;28;20408;-74
2021/12/28 09:38:09;;;;;;;0.50;0.50;;;;;;;;;;5093427;28;20442;-74
2021/12/28 09:40:36;;;;;;;0.80;0.70;;;;;;;;;;5094651;28;20438;-73
2021/12/28 09:43:04;;;;;;;1.50;0.70;;;;;;;;;;5093501;28;20404;-74
2021/12/28 09:45:30;;;;;;;0.60;0.57;;;;;;;;;;5094657;28;20495;-74
2021/12/28 09:47:57;;;;;;;0.60;0.60;;;;;;;;;;5094464;28;20400;-74
2021/12/28 09:50:23;;;;;;;0.60;0.60;;;;;;;;;;5093301;28;20504;-74
2021/12/28 09:52:50;;;;;;;0.70;0.60;;;;;;;;;;5093159;28;20554;-72
2021/12/28 09:55:17;;;;;;;0.60;0.57;;;;;;;;;;5094455;28;20457;-74
2021/12/28 09:57:45;;;;;;;0.60;0.60;;;;;;;;;;5092842;28;20416;-72
2021/12/28 10:00:12;;;;;;;0.70;0.70;;;;;;;;;;5094215;28;20467;-74
2021/12/28 10:02:38;;;;;;;0.70;0.70;;;;;;;;;;5094225;28;20412;-75
2021/12/28 10:05:06;;;;;;;0.60;0.60;;;;;;;;;;5094283;28;20460;-75
2021/12/28 10:07:33;;;;;;;1.13;0.97;;;;;;;;;;5092759;28;20831;-75
2021/12/28 10:09:59;;;;;;;0.63;0.63;;;;;;;;;;5094246;28;20415;-76
2021/12/28 10:12:30;;;;;;;1.67;1.07;;;;;;;;;;5093056;28;20600;-76
2021/12/28 10:15:00;;;;;;;0.80;0.80;;;;;;;;;;5094197;28;20400;-75
2021/12/28 10:17:27;;;;;;;0.80;0.73;;;;;;;;;;5094031;28;20395;-75
2021/12/28 10:19:53;;;;;;;1.77;0.90;;;;;;;;;;5093955;28;20776;-75
2021/12/28 10:22:19;;;;;;;2.57;2.37;;;;;;;;;;5092790;28;20392;-74
2021/12/28 10:24:45;;;;;;;1.83;1.20;;;;;;;;;;5093935;28;20956;-74
2021/12/28 10:27:12;;;;;;;0.87;0.73;;;;;;;;;;5093792;28;20403;-74
2021/12/28 10:29:38;;;;;;;0.60;0.60;;;;;;;;;;5093891;28;20399;-74
2021/12/28 10:32:17;;;;;;;0.60;0.60;;;;;;;;;;5092446;28;20563;-74
2021/12/28 10:34:52;;;;;;;0.70;0.70;;;;;;;;;;5092452;28;20440;-74
2021/12/28 10:37:20;;;;;;;0.97;0.70;;;;;;;;;;5093514;28;20415;-75
2021/12/28 10:39:48;;;;;;;1.60;0.80;;;;;;;;;;5093603;28;20416;-75
2021/12/28 10:42:33;;;;;;;0.63;0.63;;;;;;;;;;5093538;28;20454;-75
2021/12/28 10:45:00;;;;;;;1.13;0.70;;;;;;;;;;5093496;28;20465;-75
2021/12/28 10:47:26;;;;;;;1.07;0.70;;;;;;;;;;5092213;28;20404;-75
2021/12/28 10:49:52;;;;;;;1.37;0.50;;;;;;;;;;5092253;28;20418;-75
2021/12/28 10:52:24;;;;;;;1.53;0.97;;;;;;;;;;5092092;28;20471;-75
2021/12/28 10:54:51;;;;;;;0.70;0.70;;;;;;;;;;5093444;28;20903;-76
2021/12/28 10:57:16;;;;;;;0.70;0.70;;;;;;;;;;5093345;28;20396;-75
2021/12/28 10:59:43;;;;;;;1.30;0.50;;;;;;;;;;5093006;28;20467;-75
2021/12/28 11:02:09;;;;;;;1.00;0.77;;;;;;;;;;5093224;28;20408;-75
2021/12/28 11:04:38;;;;;;;0.60;0.60;;;;;;;;;;5093309;28;20909;-76
2021/12/28 11:07:08;;;;;;;0.60;0.60;;;;;;;;;;5091886;28;20575;-75
2021/12/28 11:09:35;;;;;;;0.60;0.60;;;;;;;;;;5093424;28;20538;-75
2021/12/28 11:12:01;;;;;;;0.60;0.50;;;;;;;;;;5093165;28;20447;-74
2021/12/28 11:14:30;;;;;;;0.60;0.57;;;;;;;;;;5091822;28;20941;-74
2021/12/28 11:16:58;;;;;;;0.70;0.70;;;;;;;;;;5091829;28;20400;-75
2021/12/28 11:19:30;;;;;;;1.10;0.60;;;;;;;;;;5093047;28;20457;-75
2021/12/28 11:21:58;;;;;;;0.70;0.70;;;;;;;;;;5091831;28;20404;-75
2021/12/28 11:24:28;;;;;;;1.07;0.70;;;;;;;;;;5096473;28;20404;-72
2021/12/28 11:26:54;;;;;;;0.60;0.60;;;;;;;;;;5097153;28;20415;-76
2021/12/28 11:29:22;;;;;;;0.90;0.70;;;;;;;;;;5097264;28;20400;-75
2021/12/28 11:31:53;;;;;;;0.60;0.50;;;;;;;;;;5095813;28;20538;-75
2021/12/28 11:34:21;;;;;;;0.70;0.70;;;;;;;;;;5097310;28;20485;-74
2021/12/28 11:36:55;;;;;;;0.80;0.60;;;;;;;;;;5096973;28;20419;-75
2021/12/28 11:39:25;;;;;;;0.80;0.70;;;;;;;;;;5097110;28;20952;-75
2021/12/28 11:41:51;;;;;;;1.17;0.70;;;;;;;;;;5095803;28;20904;-73
2021/12/28 11:44:18;;;;;;;0.80;0.80;;;;;;;;;;5096975;28;20436;-75
2021/12/28 11:46:45;;;;;;;1.00;0.90;;;;;;;;;;5095555;28;20416;-72
2021/12/28 11:49:13;;;;;;;0.90;0.80;;;;;;;;;;5095488;28;20392;-74
2021/12/28 11:51:39;;;;;;;0.80;0.80;;;;;;;;;;5096785;28;20496;-73
2021/12/28 11:54:08;;;;;;;1.20;1.10;;;;;;;;;;5096813;28;20420;-74
2021/12/28 11:56:38;;;;;;;0.70;0.60;;;;;;;;;;5095398;28;20884;-74
2021/12/28 11:59:07;;;;;;;1.00;0.73;;;;;;;;;;5096418;28;20546;-73
2021/12/28 12:01:37;;;;;;;0.70;0.70;;;;;;;;;;5096520;28;20399;-74
2021/12/28 12:04:04;;;;;;;0.80;0.70;;;;;;;;;;5095353;28;20404;-72
2021/12/28 12:06:48;;;;;;;1.30;0.70;;;;;;;;;;5096323;28;20510;-72
2021/12/28 12:09:14;;;;;;;0.70;0.70;;;;;;;;;;5096513;28;20457;-72
2021/12/28 12:11:59;;;;;;;0.80;0.70;;;;;;;;;;5096286;28;20897;-72
2021/12/28 12:14:45;;;;;;;0.70;0.70;;;;;;;;;;5096342;28;20419;-74
2021/12/28 12:17:29;;;;;;;0.70;0.67;;;;;;;;;;5096149;28;20400;-74
2021/12/28 12:20:00;;;;;;;0.97;0.93;;;;;;;;;;5094882;28;20411;-73
2021/12/28 12:22:36;;;;;;;0.70;0.70;;;;;;;;;;5096285;28;20448;-73
2021/12/28 12:25:02;;;;;;;0.80;0.80;;;;;;;;;;5096201;28;20491;-74
2021/12/28 12:27:40;;;;;;;0.80;0.70;;;;;;;;;;5096073;28;20503;-73
2021/12/28 12:30:18;;;;;;;2.13;0.90;;;;;;;;;;5094844;28;20424;-76
2021/12/28 12:33:06;;;;;;;1.00;0.90;;;;;;;;;;5095883;28;20962;-76
2021/12/28 12:35:41;;;;;;;0.70;0.70;;;;;;;;;;5093669;28;20419;-73
2021/12/28 12:38:10;;;;;;;1.00;0.90;;;;;;;;;;5096051;28;20533;-74
2021/12/28 12:40:55;;;;;;;1.17;0.87;;;;;;;;;;5095830;28;20906;-73
2021/12/28 12:43:22;;;;;;;1.00;0.90;;;;;;;;;;5095977;28;20393;-75
2021/12/28 12:45:52;;;;;;;0.70;0.70;;;;;;;;;;5095815;28;20392;-74
2021/12/28 12:48:30;;;;;;;1.10;1.00;;;;;;;;;;5094528;28;20419;-74
2021/12/28 12:51:16;;;;;;;3.97;0.90;;;;;;;;;;5094448;28;20411;-75
2021/12/28 12:53:43;;;;;;;2.07;0.87;;;;;;;;;;5095528;28;20455;-75
2021/12/28 12:56:16;;;;;;;3.53;1.27;;;;;;;;;;5094306;28;20408;-74
2021/12/28 12:58:45;;;;;;;1.20;1.10;;;;;;;;;;5095241;28;20439;-71
2021/12/28 13:01:27;;;;;;;1.00;0.80;;;;;;;;;;5095421;28;20404;-71
2021/12/28 13:03:53;;;;;;;1.63;1.33;;;;;;;;;;5094230;28;20797;-72
2021/12/28 13:06:38;;;;;;;1.33;0.90;;;;;;;;;;5093958;28;20432;-73
2021/12/28 13:09:08;;;;;;;1.13;1.03;;;;;;;;;;5094005;28;20877;-72
2021/12/28 13:11:34;;;;;;;0.77;0.77;;;;;;;;;;5093788;28;20907;-71
2021/12/28 13:14:00;;;;;;;1.40;1.30;;;;;;;;;;5094023;28;20419;-72
2021/12/28 13:16:26;;;;;;;0.80;0.70;;;;;;;;;;5093936;28;20410;-73
2021/12/28 13:19:06;;;;;;;1.80;0.70;;;;;;;;;;5095030;28;20411;-71
2021/12/28 13:21:32;;;;;;;0.80;0.80;;;;;;;;;;5093825;28;20400;-72
2021/12/28 13:24:11;;;;;;;0.60;0.60;;;;;;;;;;5093816;28;20412;-72
2021/12/28 13:26:58;;;;;;;1.20;0.70;;;;;;;;;;5094918;28;20496;-72
2021/12/28 13:29:24;;;;;;;0.70;0.70;;;;;;;;;;5093710;28;20412;-74
2021/12/28 13:31:51;;;;;;;0.90;0.80;;;;;;;;;;5094948;28;20491;-74
2021/12/28 13:34:17;;;;;;;0.80;0.57;;;;;;;;;;5093582;28;20404;-74
2021/12/28 13:36:50;;;;;;;0.90;0.80;;;;;;;;;;5094654;28;20447;-70
2021/12/28 13:39:17;;;;;;;0.90;0.70;;;;;;;;;;5094694;28;20486;-73
2021/12/28 13:41:53;;;;;;;2.03;0.70;;;;;;;;;;5093544;28;20400;-76
2021/12/28 13:44:19;;;;;;;1.93;0.80;;;;;;;;;;5094779;28;20420;-75
2021/12/28 13:46:46;;;;;;;1.17;0.70;;;;;;;;;;5094544;28;20400;-74
2021/12/28 13:49:15;;;;;;;1.43;0.70;;;;;;;;;;5093535;28;20412;-75
2021/12/28 13:51:42;;;;;;;0.70;0.70;;;;;;;;;;5094538;28;20407;-74
2021/12/28 13:54:08;;;;;;;2.13;1.13;;;;;;;;;;5094488;28;20439;-74
2021/12/28 13:56:37;;;;;;;0.90;0.90;;;;;;;;;;5094426;28;20483;-73
2021/12/28 13:59:04;;;;;;;1.00;0.70;;;;;;;;;;5094120;28;20466;-72
2021/12/28 14:01:32;;;;;;;0.80;0.70;;;;;;;;;;5094366;28;20411;-72
2021/12/28 14:03:58;;;;;;;1.00;0.90;;;;;;;;;;5093128;28;20408;-72
2021/12/28 14:06:25;;;;;;;0.93;0.83;;;;;;;;;;5092848;28;20488;-72
2021/12/28 14:08:51;;;;;;;1.67;1.00;;;;;;;;;;5092854;28;20404;-72
2021/12/28 14:11:30;;;;;;;1.90;0.90;;;;;;;;;;5092908;28;20411;-72
2021/12/28 14:13:57;;;;;;;1.57;1.10;;;;;;;;;;5094078;28;20475;-71
2021/12/28 14:16:23;;;;;;;1.67;0.93;;;;;;;;;;5093957;28;20411;-71
2021/12/28 14:18:50;;;;;;;1.17;1.00;;;;;;;;;;5093876;28;20441;-71
2021/12/28 14:21:29;;;;;;;2.00;1.00;;;;;;;;;;5094041;28;20415;-73
2021/12/28 14:23:59;;;;;;;0.83;0.83;;;;;;;;;;5093879;28;20408;-74
2021/12/28 14:26:28;;;;;;;1.40;1.03;;;;;;;;;;5093893;28;20408;-71
2021/12/28 14:28:56;;;;;;;2.97;1.10;;;;;;;;;;5093806;28;20465;-73
2021/12/28 14:31:23;;;;;;;1.53;0.80;;;;;;;;;;5093750;28;20400;-74
2021/12/28 14:33:51;;;;;;;1.23;1.00;;;;;;;;;;5093658;28;20466;-74
2021/12/28 14:36:18;;;;;;;3.73;1.07;;;;;;;;;;5093506;28;20820;-73
2021/12/28 14:38:44;;;;;;;2.80;1.10;;;;;;;;;;5093512;28;20895;-73
2021/12/28 14:41:20;;;;;;;1.10;0.97;;;;;;;;;;5092422;28;20437;-73
2021/12/28 14:43:46;;;;;;;1.70;1.23;;;;;;;;;;5092305;28;20411;-73
2021/12/28 14:46:25;;;;;;;1.63;1.40;;;;;;;;;;5092204;28;20507;-74
2021/12/28 14:48:51;;;;;;;2.83;0.83;;;;;;;;;;5093583;28;20411;-74